createdAt,value
2022-09-01T19:42:41.100Z,100799.19
2022-09-01T19:49:14.347Z,100800.24
2022-09-01T19:55:41.843Z,100804.52
2022-09-01T20:02:20.914Z,100811.36
2022-09-01T20:08:57.070Z,100819.35
2022-09-01T20:15:37.098Z,100823.91
2022-09-01T20:22:01.467Z,100827.88
2022-09-01T20:28:43.828Z,100827.98
2022-09-01T20:35:08.216Z,100832.75
2022-09-01T20:41:39.679Z,100840.61
2022-09-01T20:48:04.187Z,100844.81
2022-09-01T20:54:56.588Z,100849.73
2022-09-01T21:01:27.231Z,100850.45
2022-09-01T21:07:54.533Z,100854.35
2022-09-01T21:14:29.607Z,100855.48
2022-09-01T21:21:05.588Z,100859.06
2022-09-01T21:27:31.217Z,100862.81
2022-09-01T21:33:55.477Z,100866.98
2022-09-01T21:40:23.798Z,100879.61
2022-09-01T21:47:04.753Z,100883.46
2022-09-01T21:53:29.607Z,100885.93
2022-09-01T21:59:54.788Z,100887.49
2022-09-01T22:06:19.683Z,100888.50
2022-09-01T22:12:44.155Z,100881.10
2022-09-01T22:19:09.258Z,100876.41
2022-09-01T22:25:34.156Z,100878.66
2022-09-01T22:31:59.139Z,100883.44
2022-09-01T22:38:24.096Z,100888.84
2022-09-01T22:44:49.104Z,100896.46
2022-09-01T22:51:14.180Z,100900.20
2022-09-01T22:57:41.660Z,100901.34
2022-09-01T23:04:06.736Z,100899.58
2022-09-01T23:10:31.624Z,100899.27
2022-09-01T23:16:58.114Z,100895.95
2022-09-01T23:23:04.641Z,100899.70
2022-09-01T23:29:29.545Z,100901.50
2022-09-01T23:35:55.721Z,100902.84
2022-09-01T23:42:23.452Z,100903.48
2022-09-01T23:48:28.034Z,100902.84
2022-09-01T23:54:53.194Z,100905.13
